sensor_id;sensor_type;location;lat;lon;timestamp;P1;durP1;ratioP1;P2;durP2;ratioP2
6785;SDS011;3430;51.192;6.048;2023-12-20T00:01:07;5.00;;;4.50;;
6785;SDS011;3430;51.192;6.048;2023-12-20T00:03:32;4.83;;;4.33;;
6785;SDS011;3430;51.192;6.048;2023-12-20T00:05:57;5.07;;;4.57;;
6785;SDS011;3430;51.192;6.048;2023-12-20T00:08:23;5.10;;;4.60;;
6785;SDS011;3430;51.192;6.048;2023-12-20T00:10:48;6.10;;;4.93;;
6785;SDS011;3430;51.192;6.048;2023-12-20T00:13:13;5.33;;;4.83;;
6785;SDS011;3430;51.192;6.048;2023-12-20T00:15:39;7.33;;;5.13;;
6785;SDS011;3430;51.192;6.048;2023-12-20T00:18:04;6.10;;;5.03;;
6785;SDS011;3430;51.192;6.048;2023-12-20T00:20:30;5.20;;;4.70;;
6785;SDS011;3430;51.192;6.048;2023-12-20T00:22:56;8.40;;;5.30;;
6785;SDS011;3430;51.192;6.048;2023-12-20T00:25:21;5.50;;;4.83;;
6785;SDS011;3430;51.192;6.048;2023-12-20T00:27:46;5.43;;;4.93;;
6785;SDS011;3430;51.192;6.048;2023-12-20T00:30:12;5.20;;;4.70;;
6785;SDS011;3430;51.192;6.048;2023-12-20T00:32:37;5.07;;;4.57;;
6785;SDS011;3430;51.192;6.048;2023-12-20T00:35:03;5.27;;;4.73;;
6785;SDS011;3430;51.192;6.048;2023-12-20T00:37:28;5.13;;;4.63;;
6785;SDS011;3430;51.192;6.048;2023-12-20T00:39:57;6.20;;;4.83;;
6785;SDS011;3430;51.192;6.048;2023-12-20T00:42:22;4.67;;;4.27;;
6785;SDS011;3430;51.192;6.048;2023-12-20T00:44:50;5.93;;;5.10;;
6785;SDS011;3430;51.192;6.048;2023-12-20T00:47:16;5.33;;;4.60;;
6785;SDS011;3430;51.192;6.048;2023-12-20T00:49:41;5.40;;;4.90;;
6785;SDS011;3430;51.192;6.048;2023-12-20T00:52:06;5.03;;;4.23;;
6785;SDS011;3430;51.192;6.048;2023-12-20T00:54:32;4.73;;;4.33;;
6785;SDS011;3430;51.192;6.048;2023-12-20T00:56:57;7.53;;;5.33;;
6785;SDS011;3430;51.192;6.048;2023-12-20T00:59:22;5.27;;;4.47;;
6785;SDS011;3430;51.192;6.048;2023-12-20T01:01:47;6.53;;;5.03;;
6785;SDS011;3430;51.192;6.048;2023-12-20T01:04:13;9.93;;;5.00;;
6785;SDS011;3430;51.192;6.048;2023-12-20T01:06:38;5.93;;;4.63;;
6785;SDS011;3430;51.192;6.048;2023-12-20T01:09:03;6.07;;;4.70;;
6785;SDS011;3430;51.192;6.048;2023-12-20T01:11:28;7.20;;;4.53;;
6785;SDS011;3430;51.192;6.048;2023-12-20T01:13:54;4.50;;;4.10;;
6785;SDS011;3430;51.192;6.048;2023-12-20T01:16:19;4.53;;;4.13;;
6785;SDS011;3430;51.192;6.048;2023-12-20T01:18:44;5.13;;;4.40;;
6785;SDS011;3430;51.192;6.048;2023-12-20T01:21:10;4.90;;;4.50;;
6785;SDS011;3430;51.192;6.048;2023-12-20T01:23:35;6.07;;;4.47;;
6785;SDS011;3430;51.192;6.048;2023-12-20T01:26:00;5.40;;;4.77;;
6785;SDS011;3430;51.192;6.048;2023-12-20T01:28:26;6.83;;;4.50;;
6785;SDS011;3430;51.192;6.048;2023-12-20T01:30:51;4.63;;;4.23;;
6785;SDS011;3430;51.192;6.048;2023-12-20T01:33:17;4.97;;;4.03;;
6785;SDS011;3430;51.192;6.048;2023-12-20T01:35:42;7.53;;;4.70;;
6785;SDS011;3430;51.192;6.048;2023-12-20T01:38:08;4.77;;;4.37;;
6785;SDS011;3430;51.192;6.048;2023-12-20T01:40:34;4.97;;;4.40;;
6785;SDS011;3430;51.192;6.048;2023-12-20T01:43:06;6.23;;;4.80;;
6785;SDS011;3430;51.192;6.048;2023-12-20T01:45:32;6.77;;;4.60;;
6785;SDS011;3430;51.192;6.048;2023-12-20T01:47:57;5.73;;;4.57;;
6785;SDS011;3430;51.192;6.048;2023-12-20T01:50:23;5.27;;;4.37;;
6785;SDS011;3430;51.192;6.048;2023-12-20T01:52:49;4.37;;;4.03;;
6785;SDS011;3430;51.192;6.048;2023-12-20T01:55:17;5.37;;;4.17;;
6785;SDS011;3430;51.192;6.048;2023-12-20T01:57:42;4.27;;;3.87;;
6785;SDS011;3430;51.192;6.048;2023-12-20T02:00:08;4.70;;;4.00;;
6785;SDS011;3430;51.192;6.048;2023-12-20T02:02:34;6.87;;;4.13;;
6785;SDS011;3430;51.192;6.048;2023-12-20T02:05:02;8.47;;;4.10;;
6785;SDS011;3430;51.192;6.048;2023-12-20T02:07:28;4.50;;;4.10;;
6785;SDS011;3430;51.192;6.048;2023-12-20T02:09:54;4.33;;;3.87;;
6785;SDS011;3430;51.192;6.048;2023-12-20T02:12:19;6.13;;;4.07;;
6785;SDS011;3430;51.192;6.048;2023-12-20T02:14:45;5.47;;;3.93;;
6785;SDS011;3430;51.192;6.048;2023-12-20T02:17:10;4.20;;;3.57;;
6785;SDS011;3430;51.192;6.048;2023-12-20T02:19:35;4.80;;;4.00;;
6785;SDS011;3430;51.192;6.048;2023-12-20T02:22:10;5.53;;;4.23;;
6785;SDS011;3430;51.192;6.048;2023-12-20T02:24:36;4.00;;;3.70;;
6785;SDS011;3430;51.192;6.048;2023-12-20T02:27:01;4.70;;;4.00;;
6785;SDS011;3430;51.192;6.048;2023-12-20T02:29:26;5.73;;;4.00;;
6785;SDS011;3430;51.192;6.048;2023-12-20T02:31:52;4.50;;;4.07;;
6785;SDS011;3430;51.192;6.048;2023-12-20T02:34:17;6.70;;;3.80;;
6785;SDS011;3430;51.192;6.048;2023-12-20T02:36:42;3.83;;;3.43;;
6785;SDS011;3430;51.192;6.048;2023-12-20T02:39:08;6.63;;;3.73;;
6785;SDS011;3430;51.192;6.048;2023-12-20T02:41:33;4.87;;;3.87;;
6785;SDS011;3430;51.192;6.048;2023-12-20T02:43:58;6.97;;;4.13;;
6785;SDS011;3430;51.192;6.048;2023-12-20T02:46:23;4.10;;;3.40;;
6785;SDS011;3430;51.192;6.048;2023-12-20T02:48:49;6.47;;;4.07;;
6785;SDS011;3430;51.192;6.048;2023-12-20T02:51:14;4.30;;;3.17;;
6785;SDS011;3430;51.192;6.048;2023-12-20T02:53:39;5.87;;;3.50;;
6785;SDS011;3430;51.192;6.048;2023-12-20T02:56:05;4.97;;;3.87;;
6785;SDS011;3430;51.192;6.048;2023-12-20T02:58:30;4.17;;;3.77;;
6785;SDS011;3430;51.192;6.048;2023-12-20T03:00:55;4.47;;;3.90;;
6785;SDS011;3430;51.192;6.048;2023-12-20T03:03:20;4.67;;;3.67;;
6785;SDS011;3430;51.192;6.048;2023-12-20T03:05:46;4.17;;;3.73;;
6785;SDS011;3430;51.192;6.048;2023-12-20T03:08:11;4.50;;;4.10;;
6785;SDS011;3430;51.192;6.048;2023-12-20T03:10:37;4.53;;;4.07;;
6785;SDS011;3430;51.192;6.048;2023-12-20T03:13:02;4.33;;;3.37;;
6785;SDS011;3430;51.192;6.048;2023-12-20T03:15:27;7.47;;;3.93;;
6785;SDS011;3430;51.192;6.048;2023-12-20T03:17:52;5.73;;;3.90;;
6785;SDS011;3430;51.192;6.048;2023-12-20T03:20:18;3.67;;;3.37;;
6785;SDS011;3430;51.192;6.048;2023-12-20T03:22:43;3.93;;;3.40;;
6785;SDS011;3430;51.192;6.048;2023-12-20T03:25:08;4.73;;;3.53;;
6785;SDS011;3430;51.192;6.048;2023-12-20T03:27:33;3.97;;;3.10;;
6785;SDS011;3430;51.192;6.048;2023-12-20T03:29:59;4.47;;;3.40;;
6785;SDS011;3430;51.192;6.048;2023-12-20T03:32:24;4.43;;;3.33;;
6785;SDS011;3430;51.192;6.048;2023-12-20T03:34:49;5.83;;;3.47;;
6785;SDS011;3430;51.192;6.048;2023-12-20T03:37:15;8.27;;;3.63;;
6785;SDS011;3430;51.192;6.048;2023-12-20T03:39:40;5.30;;;3.60;;
6785;SDS011;3430;51.192;6.048;2023-12-20T03:42:05;4.50;;;3.30;;
6785;SDS011;3430;51.192;6.048;2023-12-20T03:44:31;5.43;;;3.50;;
6785;SDS011;3430;51.192;6.048;2023-12-20T03:46:56;5.03;;;3.90;;
6785;SDS011;3430;51.192;6.048;2023-12-20T03:49:21;5.70;;;3.40;;
6785;SDS011;3430;51.192;6.048;2023-12-20T03:54:15;4.47;;;3.20;;
6785;SDS011;3430;51.192;6.048;2023-12-20T03:56:40;5.23;;;3.97;;
6785;SDS011;3430;51.192;6.048;2023-12-20T03:59:06;4.70;;;3.80;;
6785;SDS011;3430;51.192;6.048;2023-12-20T04:01:31;4.43;;;3.37;;
6785;SDS011;3430;51.192;6.048;2023-12-20T04:03:56;3.30;;;3.00;;
6785;SDS011;3430;51.192;6.048;2023-12-20T04:06:22;4.00;;;3.23;;
6785;SDS011;3430;51.192;6.048;2023-12-20T04:08:47;6.17;;;3.50;;
6785;SDS011;3430;51.192;6.048;2023-12-20T04:11:12;4.47;;;3.07;;
6785;SDS011;3430;51.192;6.048;2023-12-20T04:13:38;4.77;;;3.37;;
6785;SDS011;3430;51.192;6.048;2023-12-20T04:16:03;5.83;;;2.87;;
6785;SDS011;3430;51.192;6.048;2023-12-20T04:18:29;5.70;;;3.17;;
6785;SDS011;3430;51.192;6.048;2023-12-20T04:20:54;4.43;;;3.30;;
6785;SDS011;3430;51.192;6.048;2023-12-20T04:23:19;4.80;;;3.67;;
6785;SDS011;3430;51.192;6.048;2023-12-20T04:25:45;4.00;;;3.40;;
6785;SDS011;3430;51.192;6.048;2023-12-20T04:28:10;5.40;;;2.93;;
6785;SDS011;3430;51.192;6.048;2023-12-20T04:30:36;3.80;;;3.23;;
6785;SDS011;3430;51.192;6.048;2023-12-20T04:33:01;3.47;;;3.03;;
6785;SDS011;3430;51.192;6.048;2023-12-20T04:35:27;5.17;;;3.60;;
6785;SDS011;3430;51.192;6.048;2023-12-20T04:37:52;4.50;;;3.50;;
6785;SDS011;3430;51.192;6.048;2023-12-20T04:40:18;4.30;;;3.60;;
6785;SDS011;3430;51.192;6.048;2023-12-20T04:42:43;3.77;;;3.33;;
6785;SDS011;3430;51.192;6.048;2023-12-20T04:45:08;6.17;;;3.60;;
6785;SDS011;3430;51.192;6.048;2023-12-20T04:47:33;3.83;;;3.37;;
6785;SDS011;3430;51.192;6.048;2023-12-20T04:49:59;4.30;;;3.00;;
6785;SDS011;3430;51.192;6.048;2023-12-20T04:52:24;3.40;;;3.00;;
6785;SDS011;3430;51.192;6.048;2023-12-20T04:54:50;3.80;;;2.80;;
6785;SDS011;3430;51.192;6.048;2023-12-20T04:57:15;4.10;;;3.63;;
6785;SDS011;3430;51.192;6.048;2023-12-20T04:59:40;3.40;;;3.10;;
6785;SDS011;3430;51.192;6.048;2023-12-20T05:02:06;6.77;;;3.17;;
6785;SDS011;3430;51.192;6.048;2023-12-20T05:04:32;3.80;;;2.97;;
6785;SDS011;3430;51.192;6.048;2023-12-20T05:06:57;5.00;;;3.27;;
6785;SDS011;3430;51.192;6.048;2023-12-20T05:09:22;4.23;;;3.37;;
6785;SDS011;3430;51.192;6.048;2023-12-20T05:11:48;4.40;;;2.87;;
6785;SDS011;3430;51.192;6.048;2023-12-20T05:14:13;5.00;;;2.93;;
6785;SDS011;3430;51.192;6.048;2023-12-20T05:16:38;6.60;;;3.50;;
6785;SDS011;3430;51.192;6.048;2023-12-20T05:19:03;5.10;;;3.37;;
6785;SDS011;3430;51.192;6.048;2023-12-20T05:21:31;5.57;;;3.27;;
6785;SDS011;3430;51.192;6.048;2023-12-20T05:23:57;4.50;;;2.97;;
6785;SDS011;3430;51.192;6.048;2023-12-20T05:26:22;4.03;;;3.47;;
6785;SDS011;3430;51.192;6.048;2023-12-20T05:28:47;5.20;;;3.40;;
6785;SDS011;3430;51.192;6.048;2023-12-20T05:31:12;4.50;;;3.60;;
6785;SDS011;3430;51.192;6.048;2023-12-20T05:33:38;6.60;;;3.40;;
6785;SDS011;3430;51.192;6.048;2023-12-20T05:36:03;3.20;;;2.90;;
6785;SDS011;3430;51.192;6.048;2023-12-20T05:38:29;5.87;;;3.30;;
6785;SDS011;3430;51.192;6.048;2023-12-20T05:40:54;4.70;;;3.50;;
6785;SDS011;3430;51.192;6.048;2023-12-20T05:43:19;6.33;;;3.17;;
6785;SDS011;3430;51.192;6.048;2023-12-20T05:45:45;5.83;;;3.30;;
6785;SDS011;3430;51.192;6.048;2023-12-20T05:48:10;5.53;;;3.23;;
6785;SDS011;3430;51.192;6.048;2023-12-20T05:50:35;4.93;;;3.10;;
6785;SDS011;3430;51.192;6.048;2023-12-20T05:53:01;7.27;;;3.03;;
6785;SDS011;3430;51.192;6.048;2023-12-20T05:55:27;4.37;;;3.20;;
6785;SDS011;3430;51.192;6.048;2023-12-20T05:57:52;3.77;;;3.33;;
6785;SDS011;3430;51.192;6.048;2023-12-20T06:00:17;6.57;;;3.00;;
6785;SDS011;3430;51.192;6.048;2023-12-20T06:02:43;3.77;;;3.07;;
6785;SDS011;3430;51.192;6.048;2023-12-20T06:05:08;6.90;;;3.30;;
6785;SDS011;3430;51.192;6.048;2023-12-20T06:07:34;3.53;;;3.20;;
6785;SDS011;3430;51.192;6.048;2023-12-20T06:09:59;6.97;;;3.40;;
6785;SDS011;3430;51.192;6.048;2023-12-20T06:12:24;7.27;;;3.30;;
6785;SDS011;3430;51.192;6.048;2023-12-20T06:14:51;3.50;;;3.20;;
6785;SDS011;3430;51.192;6.048;2023-12-20T06:17:17;10.10;;;4.03;;
6785;SDS011;3430;51.192;6.048;2023-12-20T06:19:42;5.97;;;3.00;;
6785;SDS011;3430;51.192;6.048;2023-12-20T06:22:10;4.70;;;3.20;;
6785;SDS011;3430;51.192;6.048;2023-12-20T06:24:36;5.50;;;3.50;;
6785;SDS011;3430;51.192;6.048;2023-12-20T06:27:01;5.60;;;3.43;;
6785;SDS011;3430;51.192;6.048;2023-12-20T06:29:26;4.53;;;3.17;;
6785;SDS011;3430;51.192;6.048;2023-12-20T06:31:51;7.50;;;3.40;;
6785;SDS011;3430;51.192;6.048;2023-12-20T06:34:17;3.53;;;2.90;;
6785;SDS011;3430;51.192;6.048;2023-12-20T06:36:42;5.70;;;3.40;;
6785;SDS011;3430;51.192;6.048;2023-12-20T06:39:07;5.27;;;3.17;;
6785;SDS011;3430;51.192;6.048;2023-12-20T06:41:33;5.80;;;3.50;;
6785;SDS011;3430;51.192;6.048;2023-12-20T06:43:59;7.53;;;2.83;;
6785;SDS011;3430;51.192;6.048;2023-12-20T06:46:24;6.13;;;3.10;;
6785;SDS011;3430;51.192;6.048;2023-12-20T06:48:50;6.27;;;3.20;;
6785;SDS011;3430;51.192;6.048;2023-12-20T06:51:16;5.53;;;3.00;;
6785;SDS011;3430;51.192;6.048;2023-12-20T06:53:41;5.37;;;3.27;;
6785;SDS011;3430;51.192;6.048;2023-12-20T06:56:07;7.17;;;2.87;;
6785;SDS011;3430;51.192;6.048;2023-12-20T06:58:32;7.07;;;3.20;;
6785;SDS011;3430;51.192;6.048;2023-12-20T07:00:58;6.37;;;3.17;;
6785;SDS011;3430;51.192;6.048;2023-12-20T07:03:23;5.90;;;3.00;;
6785;SDS011;3430;51.192;6.048;2023-12-20T07:05:48;7.83;;;3.30;;
6785;SDS011;3430;51.192;6.048;2023-12-20T07:08:14;4.57;;;3.17;;
6785;SDS011;3430;51.192;6.048;2023-12-20T07:10:40;7.57;;;3.70;;
6785;SDS011;3430;51.192;6.048;2023-12-20T07:13:06;4.17;;;3.30;;
6785;SDS011;3430;51.192;6.048;2023-12-20T07:15:32;9.37;;;3.50;;
6785;SDS011;3430;51.192;6.048;2023-12-20T07:17:57;4.17;;;3.00;;
6785;SDS011;3430;51.192;6.048;2023-12-20T07:20:25;5.87;;;2.90;;
6785;SDS011;3430;51.192;6.048;2023-12-20T07:22:50;6.13;;;3.23;;
6785;SDS011;3430;51.192;6.048;2023-12-20T07:25:15;4.90;;;3.03;;
6785;SDS011;3430;51.192;6.048;2023-12-20T07:27:41;7.37;;;3.20;;
6785;SDS011;3430;51.192;6.048;2023-12-20T07:30:06;6.27;;;3.63;;
6785;SDS011;3430;51.192;6.048;2023-12-20T07:32:31;6.83;;;3.47;;
6785;SDS011;3430;51.192;6.048;2023-12-20T07:34:57;3.70;;;2.90;;
6785;SDS011;3430;51.192;6.048;2023-12-20T07:37:22;8.93;;;3.50;;
6785;SDS011;3430;51.192;6.048;2023-12-20T07:39:48;6.20;;;3.00;;
6785;SDS011;3430;51.192;6.048;2023-12-20T07:42:13;4.43;;;2.97;;
6785;SDS011;3430;51.192;6.048;2023-12-20T07:44:38;5.53;;;3.27;;
6785;SDS011;3430;51.192;6.048;2023-12-20T07:47:04;4.07;;;3.20;;
6785;SDS011;3430;51.192;6.048;2023-12-20T07:49:32;5.27;;;3.40;;
6785;SDS011;3430;51.192;6.048;2023-12-20T07:51:58;5.97;;;3.00;;
6785;SDS011;3430;51.192;6.048;2023-12-20T07:54:23;4.70;;;3.00;;
6785;SDS011;3430;51.192;6.048;2023-12-20T07:56:48;11.07;;;3.60;;
6785;SDS011;3430;51.192;6.048;2023-12-20T07:59:14;9.17;;;3.43;;
6785;SDS011;3430;51.192;6.048;2023-12-20T08:01:39;6.67;;;3.50;;
6785;SDS011;3430;51.192;6.048;2023-12-20T08:04:04;8.03;;;3.23;;
6785;SDS011;3430;51.192;6.048;2023-12-20T08:06:30;5.53;;;3.53;;
6785;SDS011;3430;51.192;6.048;2023-12-20T08:08:55;3.77;;;3.00;;
6785;SDS011;3430;51.192;6.048;2023-12-20T08:11:20;9.97;;;3.77;;
6785;SDS011;3430;51.192;6.048;2023-12-20T08:13:45;9.47;;;3.30;;
6785;SDS011;3430;51.192;6.048;2023-12-20T08:16:11;6.00;;;3.43;;
6785;SDS011;3430;51.192;6.048;2023-12-20T08:18:38;3.97;;;3.03;;
6785;SDS011;3430;51.192;6.048;2023-12-20T08:21:03;4.33;;;3.43;;
6785;SDS011;3430;51.192;6.048;2023-12-20T08:23:29;5.60;;;3.07;;
6785;SDS011;3430;51.192;6.048;2023-12-20T08:25:54;6.87;;;3.47;;
6785;SDS011;3430;51.192;6.048;2023-12-20T08:28:19;5.13;;;3.27;;
6785;SDS011;3430;51.192;6.048;2023-12-20T08:30:44;9.33;;;3.27;;
6785;SDS011;3430;51.192;6.048;2023-12-20T08:33:10;5.50;;;3.27;;
6785;SDS011;3430;51.192;6.048;2023-12-20T08:35:38;6.17;;;2.97;;
6785;SDS011;3430;51.192;6.048;2023-12-20T08:38:03;5.87;;;3.10;;
6785;SDS011;3430;51.192;6.048;2023-12-20T08:40:29;10.33;;;3.40;;
6785;SDS011;3430;51.192;6.048;2023-12-20T08:42:54;4.60;;;2.67;;
6785;SDS011;3430;51.192;6.048;2023-12-20T08:45:20;9.03;;;4.00;;
6785;SDS011;3430;51.192;6.048;2023-12-20T08:47:45;6.63;;;3.43;;
6785;SDS011;3430;51.192;6.048;2023-12-20T08:50:10;7.50;;;3.30;;
6785;SDS011;3430;51.192;6.048;2023-12-20T08:52:36;5.97;;;3.13;;
6785;SDS011;3430;51.192;6.048;2023-12-20T08:55:01;6.83;;;3.27;;
6785;SDS011;3430;51.192;6.048;2023-12-20T08:57:26;6.13;;;3.30;;
6785;SDS011;3430;51.192;6.048;2023-12-20T08:59:52;5.57;;;3.40;;
6785;SDS011;3430;51.192;6.048;2023-12-20T09:02:17;5.90;;;4.20;;
6785;SDS011;3430;51.192;6.048;2023-12-20T09:04:42;8.67;;;3.37;;
6785;SDS011;3430;51.192;6.048;2023-12-20T09:07:26;6.73;;;3.03;;
6785;SDS011;3430;51.192;6.048;2023-12-20T09:09:52;6.90;;;2.80;;
6785;SDS011;3430;51.192;6.048;2023-12-20T09:12:18;6.53;;;3.30;;
6785;SDS011;3430;51.192;6.048;2023-12-20T09:14:44;8.80;;;4.33;;
6785;SDS011;3430;51.192;6.048;2023-12-20T09:17:09;8.43;;;3.40;;
6785;SDS011;3430;51.192;6.048;2023-12-20T09:19:36;6.60;;;3.47;;
6785;SDS011;3430;51.192;6.048;2023-12-20T09:22:02;14.40;;;3.60;;
6785;SDS011;3430;51.192;6.048;2023-12-20T09:24:27;14.23;;;3.87;;
6785;SDS011;3430;51.192;6.048;2023-12-20T09:26:52;9.63;;;3.53;;
6785;SDS011;3430;51.192;6.048;2023-12-20T09:29:17;6.73;;;3.13;;
6785;SDS011;3430;51.192;6.048;2023-12-20T09:31:44;12.70;;;4.23;;
6785;SDS011;3430;51.192;6.048;2023-12-20T09:34:09;11.37;;;3.33;;
6785;SDS011;3430;51.192;6.048;2023-12-20T09:36:34;7.63;;;3.30;;
6785;SDS011;3430;51.192;6.048;2023-12-20T09:39:01;16.83;;;3.57;;
6785;SDS011;3430;51.192;6.048;2023-12-20T09:41:27;10.67;;;5.07;;
6785;SDS011;3430;51.192;6.048;2023-12-20T09:43:53;8.23;;;3.10;;
6785;SDS011;3430;51.192;6.048;2023-12-20T09:46:19;15.47;;;3.87;;
6785;SDS011;3430;51.192;6.048;2023-12-20T09:48:49;5.23;;;3.33;;
6785;SDS011;3430;51.192;6.048;2023-12-20T09:51:15;7.23;;;2.87;;
6785;SDS011;3430;51.192;6.048;2023-12-20T09:53:40;8.07;;;3.10;;
6785;SDS011;3430;51.192;6.048;2023-12-20T09:56:06;6.60;;;2.77;;
6785;SDS011;3430;51.192;6.048;2023-12-20T09:58:32;4.93;;;3.03;;
6785;SDS011;3430;51.192;6.048;2023-12-20T10:00:58;4.87;;;2.93;;
6785;SDS011;3430;51.192;6.048;2023-12-20T10:03:24;6.13;;;3.43;;
6785;SDS011;3430;51.192;6.048;2023-12-20T10:05:50;5.67;;;3.20;;
6785;SDS011;3430;51.192;6.048;2023-12-20T10:08:17;11.30;;;3.77;;
6785;SDS011;3430;51.192;6.048;2023-12-20T10:10:42;5.50;;;3.27;;
6785;SDS011;3430;51.192;6.048;2023-12-20T10:13:09;6.80;;;3.30;;
6785;SDS011;3430;51.192;6.048;2023-12-20T10:15:35;8.43;;;3.47;;
6785;SDS011;3430;51.192;6.048;2023-12-20T10:18:01;6.00;;;3.50;;
6785;SDS011;3430;51.192;6.048;2023-12-20T10:20:26;7.63;;;3.33;;
6785;SDS011;3430;51.192;6.048;2023-12-20T10:22:54;7.30;;;3.13;;
6785;SDS011;3430;51.192;6.048;2023-12-20T10:25:20;6.17;;;3.57;;
6785;SDS011;3430;51.192;6.048;2023-12-20T10:27:45;8.80;;;3.63;;
6785;SDS011;3430;51.192;6.048;2023-12-20T10:30:11;7.07;;;3.30;;
6785;SDS011;3430;51.192;6.048;2023-12-20T10:32:36;8.47;;;3.70;;
6785;SDS011;3430;51.192;6.048;2023-12-20T10:35:02;5.67;;;3.27;;
6785;SDS011;3430;51.192;6.048;2023-12-20T10:37:27;6.93;;;3.20;;
6785;SDS011;3430;51.192;6.048;2023-12-20T10:39:53;4.00;;;2.70;;
6785;SDS011;3430;51.192;6.048;2023-12-20T10:42:22;5.30;;;2.90;;
6785;SDS011;3430;51.192;6.048;2023-12-20T10:44:50;6.13;;;3.13;;
6785;SDS011;3430;51.192;6.048;2023-12-20T10:47:16;8.70;;;3.20;;
6785;SDS011;3430;51.192;6.048;2023-12-20T10:49:41;6.33;;;3.30;;
6785;SDS011;3430;51.192;6.048;2023-12-20T10:52:07;7.70;;;3.10;;
6785;SDS011;3430;51.192;6.048;2023-12-20T10:54:34;7.47;;;3.00;;
6785;SDS011;3430;51.192;6.048;2023-12-20T10:56:59;6.20;;;3.23;;
6785;SDS011;3430;51.192;6.048;2023-12-20T10:59:25;6.47;;;3.47;;
6785;SDS011;3430;51.192;6.048;2023-12-20T11:01:52;7.40;;;3.07;;
6785;SDS011;3430;51.192;6.048;2023-12-20T11:04:21;6.27;;;3.23;;
6785;SDS011;3430;51.192;6.048;2023-12-20T11:06:53;7.23;;;3.33;;
6785;SDS011;3430;51.192;6.048;2023-12-20T11:09:24;7.00;;;3.47;;
6785;SDS011;3430;51.192;6.048;2023-12-20T11:14:29;4.13;;;2.73;;
6785;SDS011;3430;51.192;6.048;2023-12-20T11:17:09;7.13;;;3.13;;
6785;SDS011;3430;51.192;6.048;2023-12-20T11:20:07;7.30;;;3.13;;
6785;SDS011;3430;51.192;6.048;2023-12-20T11:22:30;7.77;;;3.10;;
6785;SDS011;3430;51.192;6.048;2023-12-20T11:25:13;8.47;;;3.20;;
6785;SDS011;3430;51.192;6.048;2023-12-20T11:27:41;4.97;;;2.63;;
6785;SDS011;3430;51.192;6.048;2023-12-20T11:30:08;4.23;;;2.77;;
6785;SDS011;3430;51.192;6.048;2023-12-20T11:32:34;8.60;;;3.10;;
6785;SDS011;3430;51.192;6.048;2023-12-20T11:35:16;6.43;;;3.20;;
6785;SDS011;3430;51.192;6.048;2023-12-20T11:37:42;6.40;;;3.57;;
6785;SDS011;3430;51.192;6.048;2023-12-20T11:40:15;9.37;;;3.40;;
6785;SDS011;3430;51.192;6.048;2023-12-20T11:42:41;3.63;;;2.53;;
6785;SDS011;3430;51.192;6.048;2023-12-20T11:45:10;9.20;;;2.90;;
6785;SDS011;3430;51.192;6.048;2023-12-20T11:47:36;8.57;;;3.10;;
6785;SDS011;3430;51.192;6.048;2023-12-20T11:50:01;11.90;;;3.53;;
6785;SDS011;3430;51.192;6.048;2023-12-20T11:52:29;4.70;;;3.00;;
6785;SDS011;3430;51.192;6.048;2023-12-20T11:54:55;4.93;;;2.93;;
6785;SDS011;3430;51.192;6.048;2023-12-20T11:57:20;8.00;;;3.00;;
6785;SDS011;3430;51.192;6.048;2023-12-20T11:59:46;6.40;;;3.10;;
6785;SDS011;3430;51.192;6.048;2023-12-20T12:02:11;5.27;;;3.10;;
6785;SDS011;3430;51.192;6.048;2023-12-20T12:04:37;9.37;;;2.90;;
6785;SDS011;3430;51.192;6.048;2023-12-20T12:07:02;5.20;;;2.93;;
6785;SDS011;3430;51.192;6.048;2023-12-20T12:09:28;7.63;;;2.87;;
6785;SDS011;3430;51.192;6.048;2023-12-20T12:11:53;5.50;;;2.70;;
6785;SDS011;3430;51.192;6.048;2023-12-20T12:14:19;4.50;;;3.00;;
6785;SDS011;3430;51.192;6.048;2023-12-20T12:16:45;6.80;;;3.17;;
6785;SDS011;3430;51.192;6.048;2023-12-20T12:19:23;4.93;;;2.90;;
6785;SDS011;3430;51.192;6.048;2023-12-20T12:21:49;5.33;;;2.97;;
6785;SDS011;3430;51.192;6.048;2023-12-20T12:24:19;4.43;;;2.80;;
6785;SDS011;3430;51.192;6.048;2023-12-20T12:26:49;6.00;;;3.33;;
6785;SDS011;3430;51.192;6.048;2023-12-20T12:29:14;4.77;;;2.73;;
6785;SDS011;3430;51.192;6.048;2023-12-20T12:31:39;5.77;;;3.00;;
6785;SDS011;3430;51.192;6.048;2023-12-20T12:34:05;7.27;;;3.10;;
6785;SDS011;3430;51.192;6.048;2023-12-20T12:36:30;5.40;;;2.77;;
6785;SDS011;3430;51.192;6.048;2023-12-20T12:38:56;4.63;;;2.80;;
6785;SDS011;3430;51.192;6.048;2023-12-20T12:41:22;7.13;;;3.10;;
6785;SDS011;3430;51.192;6.048;2023-12-20T12:43:48;8.40;;;3.40;;
6785;SDS011;3430;51.192;6.048;2023-12-20T12:46:13;5.27;;;2.60;;
6785;SDS011;3430;51.192;6.048;2023-12-20T12:48:38;4.37;;;3.03;;
6785;SDS011;3430;51.192;6.048;2023-12-20T12:51:04;11.30;;;3.77;;
6785;SDS011;3430;51.192;6.048;2023-12-20T12:53:29;5.70;;;3.27;;
6785;SDS011;3430;51.192;6.048;2023-12-20T12:55:54;5.37;;;2.97;;
6785;SDS011;3430;51.192;6.048;2023-12-20T12:58:20;7.20;;;3.13;;
6785;SDS011;3430;51.192;6.048;2023-12-20T13:00:45;4.43;;;3.00;;
6785;SDS011;3430;51.192;6.048;2023-12-20T13:03:10;5.50;;;3.27;;
6785;SDS011;3430;51.192;6.048;2023-12-20T13:05:36;5.43;;;3.13;;
6785;SDS011;3430;51.192;6.048;2023-12-20T13:08:01;3.67;;;3.20;;
6785;SDS011;3430;51.192;6.048;2023-12-20T13:10:26;4.47;;;3.10;;
6785;SDS011;3430;51.192;6.048;2023-12-20T13:12:52;4.83;;;2.70;;
6785;SDS011;3430;51.192;6.048;2023-12-20T13:15:17;5.47;;;3.00;;
6785;SDS011;3430;51.192;6.048;2023-12-20T13:17:42;7.40;;;3.27;;
6785;SDS011;3430;51.192;6.048;2023-12-20T13:20:08;6.37;;;3.13;;
6785;SDS011;3430;51.192;6.048;2023-12-20T13:22:33;6.80;;;3.53;;
6785;SDS011;3430;51.192;6.048;2023-12-20T13:24:58;3.43;;;2.67;;
6785;SDS011;3430;51.192;6.048;2023-12-20T13:27:24;6.73;;;3.80;;
6785;SDS011;3430;51.192;6.048;2023-12-20T13:29:49;5.43;;;2.90;;
6785;SDS011;3430;51.192;6.048;2023-12-20T13:32:14;8.57;;;3.53;;
6785;SDS011;3430;51.192;6.048;2023-12-20T13:34:39;6.57;;;2.97;;
6785;SDS011;3430;51.192;6.048;2023-12-20T13:37:05;7.27;;;3.10;;
6785;SDS011;3430;51.192;6.048;2023-12-20T13:39:30;6.67;;;2.90;;
6785;SDS011;3430;51.192;6.048;2023-12-20T13:41:56;5.67;;;3.17;;
6785;SDS011;3430;51.192;6.048;2023-12-20T13:44:22;5.63;;;3.60;;
6785;SDS011;3430;51.192;6.048;2023-12-20T13:46:47;10.30;;;3.13;;
6785;SDS011;3430;51.192;6.048;2023-12-20T13:49:14;5.07;;;3.37;;
6785;SDS011;3430;51.192;6.048;2023-12-20T13:51:39;8.00;;;3.40;;
6785;SDS011;3430;51.192;6.048;2023-12-20T13:54:05;4.07;;;3.07;;
6785;SDS011;3430;51.192;6.048;2023-12-20T13:56:30;6.80;;;3.20;;
6785;SDS011;3430;51.192;6.048;2023-12-20T13:58:56;7.43;;;3.17;;
6785;SDS011;3430;51.192;6.048;2023-12-20T14:01:21;31.97;;;3.70;;
6785;SDS011;3430;51.192;6.048;2023-12-20T14:03:46;10.23;;;3.33;;
6785;SDS011;3430;51.192;6.048;2023-12-20T14:06:11;6.87;;;3.50;;
6785;SDS011;3430;51.192;6.048;2023-12-20T14:08:38;6.77;;;3.70;;
6785;SDS011;3430;51.192;6.048;2023-12-20T14:11:04;5.47;;;2.80;;
6785;SDS011;3430;51.192;6.048;2023-12-20T14:13:29;5.80;;;3.00;;
6785;SDS011;3430;51.192;6.048;2023-12-20T14:15:54;5.80;;;3.10;;
6785;SDS011;3430;51.192;6.048;2023-12-20T14:18:20;4.73;;;2.83;;
6785;SDS011;3430;51.192;6.048;2023-12-20T14:20:45;5.67;;;3.00;;
6785;SDS011;3430;51.192;6.048;2023-12-20T14:23:12;7.37;;;3.10;;
6785;SDS011;3430;51.192;6.048;2023-12-20T14:25:39;8.97;;;3.67;;
6785;SDS011;3430;51.192;6.048;2023-12-20T14:28:04;6.90;;;3.13;;
6785;SDS011;3430;51.192;6.048;2023-12-20T14:30:30;8.30;;;3.93;;
6785;SDS011;3430;51.192;6.048;2023-12-20T14:32:55;7.43;;;3.53;;
6785;SDS011;3430;51.192;6.048;2023-12-20T14:35:20;5.73;;;3.23;;
6785;SDS011;3430;51.192;6.048;2023-12-20T14:37:45;8.50;;;3.13;;
6785;SDS011;3430;51.192;6.048;2023-12-20T14:40:11;4.97;;;2.90;;
6785;SDS011;3430;51.192;6.048;2023-12-20T14:42:43;8.13;;;3.13;;
6785;SDS011;3430;51.192;6.048;2023-12-20T14:45:08;5.73;;;3.37;;
6785;SDS011;3430;51.192;6.048;2023-12-20T14:47:34;8.63;;;3.60;;
6785;SDS011;3430;51.192;6.048;2023-12-20T14:50:18;3.80;;;2.93;;
6785;SDS011;3430;51.192;6.048;2023-12-20T14:52:44;5.57;;;2.85;;
6785;SDS011;3430;51.192;6.048;2023-12-20T14:55:10;6.20;;;3.27;;
6785;SDS011;3430;51.192;6.048;2023-12-20T14:57:35;4.40;;;2.83;;
6785;SDS011;3430;51.192;6.048;2023-12-20T15:00:01;6.33;;;3.20;;
6785;SDS011;3430;51.192;6.048;2023-12-20T15:02:26;5.20;;;2.70;;
6785;SDS011;3430;51.192;6.048;2023-12-20T15:04:51;7.37;;;3.10;;
6785;SDS011;3430;51.192;6.048;2023-12-20T15:07:17;5.67;;;3.00;;
6785;SDS011;3430;51.192;6.048;2023-12-20T15:09:42;6.83;;;3.20;;
6785;SDS011;3430;51.192;6.048;2023-12-20T15:12:10;6.03;;;3.00;;